Terminal Aerodrome Forecast
Issued by NWS

Home | Current Version | Previous Version | Text Only | Print | Product List | Glossary On
Versions: 1 2 3 4 5 6 7 8 9 10 11 12 13 14 15 16 17 18 19 20 21 22 23 24 25 26 27 28 29 30 31 32
000
FTUS41 KCTP 271905 AAA
TAFAOO
TAF AMD
KAOO 271905Z 2719/2818 15010G15KT P6SM SCT030
     FM272000 18010G20KT P6SM SCT050
     FM272300 21010KT 5SM TSRA BKN050CB
     FM280200 23008KT 6SM -SHRA OVC040
     FM280400 26007KT P6SM BKN035
     FM280900 28008KT P6SM OVC015
     FM281400 24005KT P6SM FEW250=

USA.gov is the U.S. government's official web portal to all federal, state and local government web resources and services.